Time;durP1;ratioP1;P1;durP2;ratioP2;P2;SDS_P1;SDS_P2;PMS_P1;PMS_P2;Temp;Humidity;BMP_temperature;BMP_pressure;BME280_temperature;BME280_humidity;BME280_pressure;Samples;Min_cycle;Max_cycle;Signal;HPM_P1;HPM_P2
2023/04/30 00:01:18;;;;;;;16.90;9.57;;;;;;;8.64;81.37;102278.44;5252795;22;20096;-67
2023/04/30 00:06:19;;;;;;;16.42;10.23;;;;;;;8.59;81.46;102267.81;5320544;22;21238;-67
2023/04/30 00:08:44;;;;;;;18.27;10.07;;;;;;;8.58;81.97;102275.50;5294008;22;20050;-67
2023/04/30 00:11:09;;;;;;;17.23;10.10;;;;;;;8.57;81.53;102277.19;5044957;28;20033;-66
2023/04/30 00:18:40;;;;;;;17.60;10.57;;;;;;;8.55;81.61;102278.84;5032712;28;20523;-66
2023/04/30 00:21:05;;;;;;;18.40;10.68;;;;;;;8.54;81.86;102274.44;5132919;22;20092;-66
2023/04/30 00:23:30;;;;;;;17.10;10.48;;;;;;;8.51;81.72;102275.16;5183738;22;20992;-66
2023/04/30 00:25:55;;;;;;;18.20;10.80;;;;;;;8.49;82.00;102278.50;5219044;22;20561;-66
2023/04/30 00:28:21;;;;;;;16.35;11.10;;;;;;;8.46;81.88;102279.22;5183647;22;20117;-67
2023/04/30 00:30:46;;;;;;;18.88;11.30;;;;;;;8.44;81.97;102278.22;5212924;22;20053;-66
2023/04/30 00:33:11;;;;;;;17.13;10.60;;;;;;;8.42;81.88;102277.22;5038159;28;20021;-66
2023/04/30 00:35:37;;;;;;;16.13;10.82;;;;;;;8.42;81.85;102276.34;5181311;22;20057;-67
2023/04/30 00:40:34;;;;;;;15.85;9.45;;;;;;;8.34;83.45;102286.28;5302070;22;20049;-66
2023/04/30 00:43:00;;;;;;;15.35;9.60;;;;;;;8.30;83.24;102280.03;5291997;22;20068;-66
2023/04/30 00:45:25;;;;;;;19.13;10.93;;;;;;;8.26;82.98;102278.06;5304453;22;20618;-66
2023/04/30 00:47:50;;;;;;;17.23;10.60;;;;;;;8.26;82.88;102291.06;5032088;28;20029;-66
2023/04/30 00:50:16;;;;;;;19.23;11.07;;;;;;;8.22;83.03;102277.81;5395601;22;20639;-67
2023/04/30 00:52:42;;;;;;;17.08;9.93;;;;;;;8.17;83.33;102283.66;5211243;22;20313;-66
2023/04/30 00:55:09;;;;;;;16.27;10.23;;;;;;;8.14;83.63;102286.06;5196240;23;20050;-66
2023/04/30 00:57:36;;;;;;;18.58;11.00;;;;;;;8.09;83.87;102284.00;5212454;22;20096;-66
2023/04/30 01:00:02;;;;;;;17.15;10.43;;;;;;;8.05;83.59;102276.84;5196068;22;20045;-66
2023/04/30 01:02:29;;;;;;;17.05;10.68;;;;;;;8.04;83.55;102275.06;5210212;22;20055;-66
2023/04/30 01:07:27;;;;;;;17.45;10.02;;;;;;;8.01;83.81;102276.69;5165767;22;20069;-66
2023/04/30 01:09:52;;;;;;;15.23;10.23;;;;;;;8.00;83.97;102271.41;5000394;28;20057;-66
2023/04/30 01:12:25;;;;;;;18.38;11.18;;;;;;;8.00;83.52;102274.88;5187272;22;20090;-66
2023/04/30 01:15:07;;;;;;;17.42;11.45;;;;;;;7.98;83.63;102270.41;5325655;22;20047;-66
2023/04/30 01:17:37;;;;;;;18.13;10.50;;;;;;;7.94;83.83;102265.88;5179942;22;20169;-66
2023/04/30 01:25:11;;;;;;;17.20;10.25;;;;;;;7.80;84.92;102265.94;5305750;22;20053;-67
2023/04/30 01:28:02;;;;;;;16.45;9.82;;;;;;;7.79;84.67;102268.47;5235872;22;20057;-66
2023/04/30 01:30:30;;;;;;;16.95;10.23;;;;;;;7.75;84.91;102267.41;5211024;22;20090;-66
2023/04/30 01:32:56;;;;;;;18.80;11.00;;;;;;;7.72;85.03;102264.63;5532922;22;20045;-67
2023/04/30 01:41:00;;;;;;;17.15;9.77;;;;;;;7.64;85.17;102278.84;5438117;22;20049;-66
2023/04/30 01:43:44;;;;;;;16.13;10.00;;;;;;;7.62;85.57;102273.56;5041839;28;21605;-66
2023/04/30 01:46:26;;;;;;;19.92;11.60;;;;;;;7.61;85.53;102274.38;5396045;22;20053;-66
2023/04/30 01:51:28;;;;;;;20.02;11.13;;;;;;;7.52;85.40;102271.25;5300597;22;20072;-66
2023/04/30 01:53:56;;;;;;;16.70;10.65;;;;;;;7.51;85.93;102276.34;5277548;22;20050;-66
2023/04/30 01:56:30;;;;;;;17.58;10.98;;;;;;;7.51;86.06;102278.94;5351069;22;20852;-67
2023/04/30 01:58:55;;;;;;;19.05;10.95;;;;;;;7.48;86.40;102275.34;5035585;28;20104;-66
2023/04/30 02:01:26;;;;;;;19.38;11.15;;;;;;;7.48;86.62;102271.88;5166745;22;20059;-66
2023/04/30 02:06:30;;;;;;;19.13;11.48;;;;;;;7.43;86.41;102270.69;5148693;22;20206;-66
2023/04/30 02:09:01;;;;;;;19.55;11.65;;;;;;;7.42;86.63;102277.56;5217145;22;20137;-67
2023/04/30 02:14:00;;;;;;;17.00;11.00;;;;;;;7.38;86.82;102277.31;5015047;28;19975;-66
2023/04/30 02:16:25;;;;;;;17.15;11.18;;;;;;;7.35;86.85;102280.59;5015519;28;20022;-66
2023/04/30 02:21:22;;;;;;;20.13;11.30;;;;;;;7.32;87.62;102281.31;5187609;22;20040;-66
2023/04/30 02:23:48;;;;;;;19.42;11.75;;;;;;;7.31;88.09;102281.22;5204742;22;20053;-68
2023/04/30 02:26:13;;;;;;;16.00;10.95;;;;;;;7.29;87.96;102280.25;5235140;22;20787;-66
2023/04/30 02:28:38;;;;;;;17.80;11.05;;;;;;;7.26;87.58;102286.13;5246075;22;20073;-66
2023/04/30 02:33:36;;;;;;;18.25;11.70;;;;;;;7.24;87.27;102281.66;5275978;22;20117;-66
2023/04/30 02:36:05;;;;;;;18.65;11.02;;;;;;;7.22;87.16;102288.47;5013323;28;20042;-66
2023/04/30 02:38:30;;;;;;;17.63;11.38;;;;;;;7.19;87.12;102273.59;5262861;22;20052;-67
2023/04/30 02:40:55;;;;;;;14.73;9.98;;;;;;;7.14;87.94;102275.91;5151138;22;20545;-66
2023/04/30 02:43:21;;;;;;;15.27;9.98;;;;;;;7.11;88.30;102278.34;5035860;28;20021;-66
2023/04/30 02:48:11;;;;;;;15.65;9.93;;;;;;;7.08;87.70;102280.75;5128611;22;20050;-67
2023/04/30 02:53:10;;;;;;;16.58;11.18;;;;;;;7.05;87.86;102275.34;5093867;23;20050;-67
2023/04/30 02:55:35;;;;;;;18.90;12.10;;;;;;;7.02;87.71;102269.97;5118496;23;20127;-67
2023/04/30 02:58:00;;;;;;;18.50;11.00;;;;;;;7.01;88.90;102275.06;5034462;28;20035;-67
2023/04/30 03:00:26;;;;;;;16.55;10.45;;;;;;;6.96;89.29;102280.88;5034760;28;20029;-67
2023/04/30 03:02:51;;;;;;;17.67;10.45;;;;;;;6.91;89.30;102277.09;5034945;28;20035;-67
2023/04/30 03:05:16;;;;;;;16.23;10.35;;;;;;;6.90;89.20;102271.84;5032666;28;20033;-67
2023/04/30 03:07:41;;;;;;;16.30;10.23;;;;;;;6.87;89.45;102271.66;5034845;28;20091;-67
2023/04/30 03:10:07;;;;;;;17.30;10.68;;;;;;;6.84;89.00;102271.47;5034868;28;20025;-67
2023/04/30 03:12:33;;;;;;;18.60;11.45;;;;;;;6.81;89.07;102272.16;5036055;28;20036;-67
2023/04/30 03:14:58;;;;;;;18.30;11.45;;;;;;;6.78;88.71;102270.28;5036229;28;20108;-67
2023/04/30 03:17:23;;;;;;;17.33;10.98;;;;;;;6.75;89.33;102269.19;5032977;28;20025;-67
2023/04/30 03:19:49;;;;;;;19.83;11.27;;;;;;;6.74;89.19;102272.59;5037455;28;20036;-67
2023/04/30 03:22:15;;;;;;;18.75;11.10;;;;;;;6.71;89.45;102262.03;5034383;28;20033;-67
2023/04/30 03:24:40;;;;;;;17.98;11.07;;;;;;;6.70;88.96;102266.31;5034572;28;20072;-67
2023/04/30 03:27:05;;;;;;;17.80;11.35;;;;;;;6.70;89.24;102275.78;5035170;28;20836;-67
2023/04/30 03:29:31;;;;;;;18.95;11.65;;;;;;;6.68;88.96;102286.03;5036565;28;20060;-67
2023/04/30 03:31:56;;;;;;;17.50;11.77;;;;;;;6.67;89.23;102276.47;5035393;28;20025;-67
2023/04/30 03:34:21;;;;;;;19.20;11.63;;;;;;;6.67;88.87;102276.47;5013404;28;20041;-67
2023/04/30 03:36:46;;;;;;;19.30;11.32;;;;;;;6.67;89.48;102271.28;5031235;28;20029;-66
2023/04/30 03:39:13;;;;;;;18.58;11.57;;;;;;;6.65;89.24;102275.50;5033826;28;20033;-67
2023/04/30 03:41:39;;;;;;;18.40;11.40;;;;;;;6.60;89.18;102271.72;5035691;28;20152;-67
2023/04/30 03:44:04;;;;;;;17.98;11.55;;;;;;;6.57;89.39;102274.09;5034311;28;20159;-67
2023/04/30 03:46:30;;;;;;;17.90;11.60;;;;;;;6.58;89.70;102281.97;5034349;28;20017;-67
2023/04/30 03:48:55;;;;;;;18.70;12.40;;;;;;;6.56;90.26;102280.06;5035127;28;20021;-67
2023/04/30 03:51:20;;;;;;;19.30;12.13;;;;;;;6.53;90.46;102272.13;5016008;28;20029;-67
2023/04/30 03:53:46;;;;;;;19.40;12.38;;;;;;;6.52;90.25;102275.53;5031410;28;20385;-67
2023/04/30 03:56:12;;;;;;;19.77;12.65;;;;;;;6.52;90.80;102280.72;5002590;28;20038;-67
2023/04/30 03:58:37;;;;;;;20.27;12.85;;;;;;;6.49;90.88;102291.75;5013460;28;20038;-67
2023/04/30 04:01:03;;;;;;;24.58;12.60;;;;;;;6.48;90.63;102284.78;5013941;28;20017;-67
2023/04/30 04:03:29;;;;;;;22.27;12.75;;;;;;;6.47;90.81;102293.34;5014761;28;20064;-67
2023/04/30 04:05:54;;;;;;;19.17;12.45;;;;;;;6.44;90.68;102291.47;4997424;28;20060;-67
2023/04/30 04:08:19;;;;;;;19.23;12.13;;;;;;;6.42;91.01;102292.16;5014699;28;20599;-67
2023/04/30 04:10:45;;;;;;;20.70;13.00;;;;;;;6.41;91.32;102287.78;5013963;28;20021;-67
2023/04/30 04:13:10;;;;;;;16.80;11.88;;;;;;;6.35;91.91;102289.97;5013786;28;20560;-67
2023/04/30 04:15:35;;;;;;;19.85;11.55;;;;;;;6.26;91.65;102292.88;5015032;28;20324;-67
2023/04/30 04:18:01;;;;;;;18.75;11.57;;;;;;;6.24;91.96;102297.03;4994351;28;20025;-67
2023/04/30 04:20:28;;;;;;;18.15;10.93;;;;;;;6.26;91.77;102295.47;5014869;28;20025;-67
2023/04/30 04:22:53;;;;;;;17.60;11.32;;;;;;;6.22;91.50;102286.59;5014058;28;20034;-67
2023/04/30 04:25:19;;;;;;;16.33;11.20;;;;;;;6.19;91.71;102291.56;5016263;28;20382;-67
2023/04/30 04:27:44;;;;;;;18.27;11.55;;;;;;;6.18;91.59;102288.88;5015938;28;20030;-67
2023/04/30 04:30:10;;;;;;;19.27;12.25;;;;;;;6.18;91.79;102291.47;5015588;28;20049;-67
2023/04/30 04:32:45;;;;;;;17.38;11.43;;;;;;;6.18;91.26;102294.06;5015802;28;20025;-67
2023/04/30 04:35:10;;;;;;;17.95;11.98;;;;;;;6.18;90.73;102294.06;4997374;28;20033;-67
2023/04/30 04:37:35;;;;;;;21.90;12.50;;;;;;;6.20;91.02;102300.22;4998078;28;20033;-67
2023/04/30 04:40:01;;;;;;;20.27;12.00;;;;;;;6.18;91.38;102297.53;5015051;28;20083;-66
2023/04/30 04:42:26;;;;;;;20.48;12.50;;;;;;;6.18;91.61;102294.94;5016148;28;20033;-67
2023/04/30 04:44:51;;;;;;;18.80;12.85;;;;;;;6.20;91.71;102298.56;5015007;28;20126;-67
2023/04/30 04:47:20;;;;;;;22.30;12.02;;;;;;;6.20;92.33;102303.72;5015455;28;20029;-67
2023/04/30 04:49:45;;;;;;;19.80;12.25;;;;;;;6.23;92.20;102303.03;5015547;28;20021;-67
2023/04/30 04:52:11;;;;;;;19.73;12.25;;;;;;;6.26;91.84;102313.59;4979313;28;20039;-67
2023/04/30 04:54:36;;;;;;;21.48;12.98;;;;;;;6.26;91.81;102308.41;5012302;28;20044;-67
2023/04/30 04:57:01;;;;;;;19.67;12.52;;;;;;;6.26;92.03;102300.66;4992227;28;20172;-66
2023/04/30 04:59:27;;;;;;;17.90;11.45;;;;;;;6.27;91.48;102307.59;5014962;28;20120;-67
2023/04/30 05:04:29;;;;;;;20.17;12.60;;;;;;;6.28;91.83;102311.97;5177717;22;20761;-67
2023/04/30 05:06:55;;;;;;;19.48;12.93;;;;;;;6.29;92.51;102305.13;5021516;28;20033;-67
2023/04/30 05:09:20;;;;;;;42.55;25.95;;;;;;;6.30;92.42;102307.81;5001022;28;20083;-67
2023/04/30 05:11:47;;;;;;;38.85;24.60;;;;;;;6.33;92.74;102310.59;5021881;28;20059;-67
2023/04/30 05:14:13;;;;;;;40.40;23.48;;;;;;;6.34;92.33;102306.31;5022378;28;20466;-67
2023/04/30 05:16:38;;;;;;;24.45;15.93;;;;;;;6.36;92.85;102304.72;5022842;28;20025;-67
2023/04/30 05:19:04;;;;;;;24.38;15.50;;;;;;;6.36;92.92;102305.63;5020555;28;20132;-67
2023/04/30 05:21:30;;;;;;;27.38;17.45;;;;;;;6.37;93.13;102309.09;5023038;28;20115;-66
2023/04/30 05:23:56;;;;;;;24.13;16.08;;;;;;;6.38;93.81;102306.59;5021820;28;20160;-67
2023/04/30 05:26:23;;;;;;;24.05;15.45;;;;;;;6.38;95.10;102305.72;5023054;28;20117;-67
2023/04/30 05:28:49;;;;;;;23.65;15.55;;;;;;;6.37;95.70;102307.41;5022641;28;20029;-67
2023/04/30 05:31:15;;;;;;;24.60;15.68;;;;;;;6.37;96.17;102302.25;5021485;28;21156;-67
2023/04/30 05:33:41;;;;;;;23.50;14.75;;;;;;;6.39;96.47;102300.63;5018981;28;20504;-67
2023/04/30 05:36:06;;;;;;;25.83;15.63;;;;;;;6.41;96.93;102300.72;5022747;28;20030;-67
2023/04/30 05:38:31;;;;;;;26.50;17.08;;;;;;;6.40;98.02;102305.03;5021426;28;20029;-67
2023/04/30 05:40:57;;;;;;;27.15;17.02;;;;;;;6.41;98.79;102309.38;5000538;28;20562;-67
2023/04/30 05:43:22;;;;;;;26.58;17.05;;;;;;;6.44;99.45;102308.69;5021047;28;20032;-67
2023/04/30 05:45:47;;;;;;;25.42;16.15;;;;;;;6.48;100.00;102304.63;5021752;28;20041;-67
2023/04/30 05:50:49;;;;;;;27.25;16.13;;;;;;;6.59;100.00;102304.50;5074045;22;20507;-67
2023/04/30 05:53:15;;;;;;;25.77;16.33;;;;;;;6.67;100.00;102301.50;5017174;28;20037;-67
2023/04/30 05:55:40;;;;;;;24.35;16.38;;;;;;;6.73;100.00;102307.94;5017279;28;20413;-67
2023/04/30 05:58:06;;;;;;;24.13;15.77;;;;;;;6.81;100.00;102307.53;5016406;28;20424;-67
2023/04/30 06:00:31;;;;;;;22.65;14.82;;;;;;;6.86;100.00;102299.22;5019510;28;20033;-67
2023/04/30 06:02:56;;;;;;;23.48;15.45;;;;;;;6.95;100.00;102301.50;5017083;28;20060;-67
2023/04/30 06:05:22;;;;;;;25.80;15.65;;;;;;;7.03;100.00;102304.59;5017585;28;20025;-67
2023/04/30 06:07:47;;;;;;;25.10;16.08;;;;;;;7.11;100.00;102301.66;4998361;28;20068;-67
2023/04/30 06:10:12;;;;;;;25.63;16.38;;;;;;;7.22;100.00;102304.00;5016781;28;20402;-67
2023/04/30 06:12:38;;;;;;;26.55;17.40;;;;;;;7.32;100.00;102293.38;4998018;28;20033;-67
2023/04/30 06:15:05;;;;;;;23.45;14.77;;;;;;;7.41;100.00;102299.13;5305267;22;21028;-67
2023/04/30 06:20:08;;;;;;;22.25;14.23;;;;;;;7.65;100.00;102304.00;5039900;28;20508;-67
2023/04/30 06:22:33;;;;;;;23.15;14.38;;;;;;;7.75;100.00;102297.63;5043912;28;20534;-67
2023/04/30 06:24:59;;;;;;;21.05;13.88;;;;;;;7.86;100.00;102306.06;5041629;28;20028;-67
2023/04/30 06:27:27;;;;;;;18.00;12.13;;;;;;;7.98;98.17;102301.56;5042146;28;20032;-67
2023/04/30 06:29:53;;;;;;;19.90;12.80;;;;;;;8.12;98.77;102300.66;5024285;28;20047;-67
2023/04/30 06:32:18;;;;;;;20.40;12.68;;;;;;;8.27;99.29;102298.03;5042864;28;20028;-67
2023/04/30 06:34:43;;;;;;;19.02;11.95;;;;;;;8.45;98.33;102297.31;5041959;28;20127;-67
2023/04/30 06:37:09;;;;;;;21.92;12.15;;;;;;;8.64;97.58;102297.50;5040348;28;20016;-67
2023/04/30 06:39:34;;;;;;;18.58;11.95;;;;;;;8.80;96.27;102298.34;5040168;28;20032;-67
2023/04/30 06:42:00;;;;;;;17.13;12.25;;;;;;;8.92;95.73;102288.63;5045300;28;20099;-67
2023/04/30 06:44:25;;;;;;;17.75;11.68;;;;;;;9.04;94.32;102293.59;5045112;28;20422;-67
2023/04/30 06:46:50;;;;;;;19.90;12.00;;;;;;;9.12;94.12;102292.28;5046265;28;20147;-67
2023/04/30 06:49:16;;;;;;;19.30;12.00;;;;;;;9.25;94.18;102295.53;5046588;28;20442;-67
2023/04/30 06:51:41;;;;;;;21.70;12.25;;;;;;;9.37;92.99;102290.94;5026744;28;20483;-67
2023/04/30 06:54:07;;;;;;;17.48;11.63;;;;;;;9.47;92.32;102295.84;5043830;28;20108;-67
2023/04/30 06:56:32;;;;;;;18.38;12.48;;;;;;;9.50;90.84;102295.09;5043426;28;20060;-67
2023/04/30 06:58:57;;;;;;;17.00;11.95;;;;;;;9.58;91.20;102305.06;5046437;28;20025;-67
2023/04/30 07:01:23;;;;;;;19.55;12.80;;;;;;;9.66;91.58;102304.56;5046014;28;20472;-67
2023/04/30 07:03:48;;;;;;;18.63;11.80;;;;;;;9.79;90.99;102303.47;5044573;28;20017;-67
2023/04/30 07:06:14;;;;;;;19.73;13.10;;;;;;;9.92;91.81;102314.59;5046703;28;20033;-67
2023/04/30 07:08:40;;;;;;;16.60;12.30;;;;;;;10.05;90.75;102320.41;5026211;28;20427;-67
2023/04/30 07:11:05;;;;;;;19.10;12.63;;;;;;;10.13;89.70;102316.47;5046645;28;20112;-66
2023/04/30 07:13:31;;;;;;;19.42;12.60;;;;;;;10.13;87.49;102310.38;5042868;28;20507;-67
2023/04/30 07:15:57;;;;;;;19.10;12.30;;;;;;;10.12;89.08;102313.81;5044868;28;20096;-67
2023/04/30 07:18:22;;;;;;;19.50;12.77;;;;;;;10.24;89.92;102312.69;5033991;28;20056;-67
2023/04/30 07:20:47;;;;;;;19.17;13.10;;;;;;;10.34;89.13;102311.47;5024610;28;20033;-67
2023/04/30 07:23:13;;;;;;;18.73;12.43;;;;;;;10.32;87.46;102305.22;5022946;28;20044;-67
2023/04/30 07:25:38;;;;;;;19.13;13.32;;;;;;;10.41;88.02;102307.41;5141872;22;20081;-72
2023/04/30 07:28:03;;;;;;;20.77;12.88;;;;;;;10.41;87.37;102303.13;5014901;28;20445;-73
2023/04/30 07:30:28;;;;;;;19.58;12.50;;;;;;;10.51;86.66;102303.53;5014465;28;20060;-72
2023/04/30 07:32:55;;;;;;;22.35;13.27;;;;;;;10.67;88.23;102299.94;5013878;28;20027;-72
2023/04/30 07:35:20;;;;;;;21.45;13.07;;;;;;;10.80;85.33;102291.88;4994597;28;20029;-72
2023/04/30 07:37:45;;;;;;;18.77;12.95;;;;;;;10.91;87.62;102290.66;4992628;28;20034;-72
2023/04/30 07:40:12;;;;;;;19.83;12.50;;;;;;;11.04;85.12;102297.31;5143258;22;20081;-67
2023/04/30 07:42:40;;;;;;;21.70;13.10;;;;;;;11.14;83.49;102288.19;5025029;28;20057;-67
2023/04/30 07:45:05;;;;;;;19.85;12.65;;;;;;;11.30;84.71;102284.53;5024063;28;20107;-67
2023/04/30 07:47:31;;;;;;;19.63;12.90;;;;;;;11.44;83.43;102285.13;5024268;28;20116;-67
2023/04/30 07:49:56;;;;;;;18.35;12.50;;;;;;;11.56;83.01;102293.50;5023287;28;20168;-67
2023/04/30 07:52:21;;;;;;;21.17;13.60;;;;;;;11.70;84.46;102290.56;5021263;28;20025;-67
2023/04/30 07:54:47;;;;;;;19.40;12.52;;;;;;;11.81;80.90;102286.69;5020382;28;20492;-68
2023/04/30 07:57:12;;;;;;;18.92;12.90;;;;;;;11.87;81.79;102294.78;5020148;28;20027;-67
2023/04/30 07:59:37;;;;;;;20.10;13.63;;;;;;;11.98;82.22;102293.53;5022298;28;20120;-67
2023/04/30 08:02:02;;;;;;;19.33;12.70;;;;;;;12.07;82.27;102289.53;5022191;28;20037;-67
2023/04/30 08:04:28;;;;;;;18.42;12.82;;;;;;;12.14;79.77;102283.72;5022120;28;20477;-68
2023/04/30 08:06:53;;;;;;;21.20;13.70;;;;;;;12.23;79.68;102296.28;5023648;28;20071;-67
2023/04/30 08:09:18;;;;;;;18.88;12.45;;;;;;;12.39;80.46;102290.81;5025916;28;20564;-68
2023/04/30 08:11:43;;;;;;;17.60;12.23;;;;;;;12.56;78.08;102291.47;5025702;28;20025;-67
2023/04/30 08:16:42;;;;;;;21.60;12.70;;;;;;;12.83;77.10;102291.66;5043437;22;20115;-67
2023/04/30 08:19:08;;;;;;;18.15;12.93;;;;;;;12.96;79.19;102293.00;5017594;28;20118;-67
2023/04/30 08:21:33;;;;;;;20.27;13.30;;;;;;;13.19;79.78;102295.56;5017999;28;20041;-67
2023/04/30 08:23:58;;;;;;;20.27;13.00;;;;;;;13.42;78.69;102295.53;5017017;28;20104;-67
2023/04/30 08:26:24;;;;;;;22.27;12.63;;;;;;;13.56;78.50;102302.13;5016983;28;20029;-68
2023/04/30 08:28:50;;;;;;;20.40;13.02;;;;;;;13.79;79.35;102296.78;5015057;28;20021;-68
2023/04/30 08:31:16;;;;;;;18.55;13.02;;;;;;;14.03;78.73;102296.72;5047709;23;20036;-71
2023/04/30 08:33:41;;;;;;;18.17;12.40;;;;;;;14.15;73.58;102296.22;5168275;22;20374;-71
2023/04/30 08:36:07;;;;;;;18.77;12.05;;;;;;;14.23;75.33;102299.97;4973073;28;20030;-71
2023/04/30 08:38:32;;;;;;;18.30;11.98;;;;;;;14.24;70.59;102300.03;4972676;28;20037;-71
2023/04/30 08:41:11;;;;;;;18.60;12.65;;;;;;;14.30;74.36;102291.47;4973721;28;20026;-71
2023/04/30 08:43:36;;;;;;;16.20;11.10;;;;;;;14.24;72.10;102291.28;4974005;28;20030;-71
2023/04/30 08:46:04;;;;;;;17.80;12.05;;;;;;;14.31;70.73;102289.72;4975476;28;20033;-71
2023/04/30 08:48:30;;;;;;;18.42;12.55;;;;;;;14.49;73.66;102286.81;4975651;28;20026;-71
2023/04/30 08:50:58;;;;;;;19.58;13.05;;;;;;;14.76;71.60;102292.03;4975498;28;20038;-71
2023/04/30 08:53:23;;;;;;;17.73;11.77;;;;;;;14.87;68.34;102287.06;4975922;28;20105;-71
2023/04/30 08:55:49;;;;;;;17.00;11.85;;;;;;;14.85;68.12;102278.28;4975882;28;20483;-71
2023/04/30 08:58:14;;;;;;;18.40;12.80;;;;;;;14.95;69.82;102283.81;4975282;28;20037;-71
2023/04/30 09:00:40;;;;;;;19.15;12.63;;;;;;;15.15;69.52;102279.97;4975473;28;20055;-71
2023/04/30 09:03:06;;;;;;;17.20;12.45;;;;;;;15.25;69.07;102280.28;4973386;28;20110;-71
2023/04/30 09:05:32;;;;;;;17.15;12.18;;;;;;;15.33;67.29;102283.13;4975510;28;20030;-71
2023/04/30 09:07:57;;;;;;;18.58;12.63;;;;;;;15.43;67.64;102282.50;4975060;28;20482;-72
2023/04/30 09:10:23;;;;;;;20.73;14.20;;;;;;;15.57;72.68;102275.00;4974849;28;20390;-72
2023/04/30 09:13:03;;;;;;;19.10;13.55;;;;;;;15.87;73.08;102278.41;4975426;28;20470;-72
2023/04/30 09:15:30;;;;;;;21.98;13.27;;;;;;;16.06;70.97;102270.13;4975513;28;20045;-72
2023/04/30 09:18:13;;;;;;;19.70;14.40;;;;;;;16.32;73.62;102270.72;4975118;28;20505;-72
2023/04/30 09:20:56;;;;;;;17.83;12.15;;;;;;;16.51;70.35;102273.75;4975457;28;20030;-72
2023/04/30 09:23:22;;;;;;;18.30;12.23;;;;;;;16.67;69.27;102277.63;4975557;28;20027;-72
2023/04/30 09:25:47;;;;;;;16.35;11.88;;;;;;;16.73;64.36;102275.13;4975246;28;20041;-72
2023/04/30 09:28:13;;;;;;;15.85;11.77;;;;;;;16.65;62.94;102272.31;4975196;28;20072;-72
2023/04/30 09:30:39;;;;;;;15.35;11.48;;;;;;;16.70;63.01;102269.78;4975405;28;20066;-72
2023/04/30 09:33:05;;;;;;;15.88;11.20;;;;;;;16.76;64.86;102269.91;4979581;28;20057;-72
2023/04/30 09:35:38;;;;;;;13.68;10.60;;;;;;;16.75;61.72;102276.03;4994433;28;20029;-72
2023/04/30 09:38:04;;;;;;;14.52;10.68;;;;;;;16.60;65.42;102267.81;4994984;28;20033;-72
2023/04/30 09:40:39;;;;;;;13.82;10.30;;;;;;;16.64;64.65;102269.66;4994227;28;20096;-72
2023/04/30 09:43:05;;;;;;;14.57;10.90;;;;;;;16.71;65.07;102266.28;4994629;28;20109;-72
2023/04/30 09:45:47;;;;;;;14.00;10.90;;;;;;;16.81;67.25;102267.38;4994399;28;20030;-72
2023/04/30 09:48:28;;;;;;;16.02;11.20;;;;;;;16.97;66.01;102271.25;4995176;28;20504;-72
2023/04/30 09:50:54;;;;;;;14.77;11.40;;;;;;;16.88;61.81;102269.31;4994736;28;20226;-72
2023/04/30 09:53:19;;;;;;;12.10;9.82;;;;;;;17.00;63.34;102266.03;4993812;28;20506;-72
2023/04/30 09:55:47;;;;;;;12.35;9.70;;;;;;;17.17;63.78;102267.25;4994024;28;20030;-72
2023/04/30 09:58:14;;;;;;;12.20;9.07;;;;;;;17.09;61.70;102265.31;4994270;28;20061;-72
2023/04/30 10:00:41;;;;;;;14.88;10.07;;;;;;;17.05;67.28;102264.38;4994815;28;21135;-72
2023/04/30 10:03:08;;;;;;;14.32;10.30;;;;;;;17.07;59.97;102260.03;4994475;28;20570;-72
2023/04/30 10:05:40;;;;;;;13.98;11.15;;;;;;;17.19;63.02;102255.00;4994541;28;20101;-72
2023/04/30 10:08:17;;;;;;;15.52;10.38;;;;;;;17.35;61.58;102255.28;4994207;28;20437;-72
2023/04/30 10:10:46;;;;;;;12.27;9.75;;;;;;;17.54;64.53;102256.50;4994233;28;20041;-72
2023/04/30 10:13:17;;;;;;;11.55;8.80;;;;;;;17.55;58.24;102259.16;4994818;28;20378;-72
2023/04/30 10:15:48;;;;;;;11.30;8.30;;;;;;;17.63;58.45;102250.50;4998374;28;20080;-72
2023/04/30 10:18:18;;;;;;;12.82;8.25;;;;;;;17.78;59.78;102253.38;4998101;28;20440;-72
2023/04/30 10:20:46;;;;;;;10.68;8.45;;;;;;;17.84;57.66;102252.59;4998092;28;20029;-72
2023/04/30 10:23:12;;;;;;;13.20;10.68;;;;;;;17.70;55.88;102247.13;4997278;28;20549;-72
2023/04/30 10:25:39;;;;;;;14.73;10.32;;;;;;;17.49;57.49;102248.50;4997505;28;20044;-72
2023/04/30 10:28:07;;;;;;;13.43;10.73;;;;;;;17.48;61.53;102248.47;4997905;28;20236;-72
2023/04/30 10:30:34;;;;;;;13.85;10.68;;;;;;;17.26;57.76;102244.56;4998218;28;20054;-72
2023/04/30 10:33:16;;;;;;;11.20;9.30;;;;;;;17.11;59.75;102237.28;4997466;28;20064;-72
2023/04/30 10:35:53;;;;;;;11.30;9.25;;;;;;;17.13;61.11;102231.19;4997512;28;20030;-72
2023/04/30 10:38:22;;;;;;;12.32;10.15;;;;;;;17.31;57.92;102237.66;4997559;28;20080;-72
2023/04/30 10:40:47;;;;;;;12.70;9.32;;;;;;;17.38;59.88;102223.72;4997992;28;20026;-72
2023/04/30 10:43:13;;;;;;;12.95;9.30;;;;;;;17.56;60.68;102221.38;4997351;28;20085;-72
2023/04/30 10:45:42;;;;;;;11.73;9.63;;;;;;;17.87;58.07;102221.91;4997319;28;20124;-72
2023/04/30 10:48:08;;;;;;;13.02;9.73;;;;;;;18.13;58.19;102220.53;4997772;28;20119;-72
2023/04/30 10:50:43;;;;;;;12.30;9.40;;;;;;;18.33;57.85;102212.91;4996999;28;20095;-72
2023/04/30 10:53:18;;;;;;;11.95;10.13;;;;;;;18.46;59.14;102209.56;4996002;28;20516;-72
2023/04/30 10:55:47;;;;;;;12.48;9.80;;;;;;;18.57;58.92;102207.06;4997383;28;20069;-72
2023/04/30 10:58:26;;;;;;;;;;;;;;;18.64;60.56;102208.91;4997426;28;20022;-73
2023/04/30 11:01:14;;;;;;;13.05;10.15;;;;;;;18.51;56.54;102197.31;5317793;22;19932;-71
2023/04/30 11:03:41;;;;;;;13.23;10.53;;;;;;;18.37;54.67;102185.69;5292644;22;20049;-71
2023/04/30 11:08:50;;;;;;;12.18;9.50;;;;;;;18.51;58.79;102181.47;5108386;22;20057;-68
2023/04/30 11:11:22;;;;;;;10.70;8.38;;;;;;;18.75;56.86;102190.53;5039774;28;20025;-67
2023/04/30 11:16:37;;;;;;;9.95;7.97;;;;;;;18.83;55.74;102175.69;5347271;22;20053;-67
2023/04/30 11:21:32;;;;;;;10.85;8.60;;;;;;;19.05;58.05;102170.66;5228851;22;20095;-67
2023/04/30 11:24:03;;;;;;;12.15;8.68;;;;;;;19.34;56.38;102173.56;5162925;22;20020;-67
2023/04/30 11:26:28;;;;;;;11.27;9.00;;;;;;;19.54;54.36;102168.44;5295480;22;20045;-67
2023/04/30 11:31:33;;;;;;;8.90;7.07;;;;;;;19.42;50.76;102157.75;4895435;22;20433;-68
2023/04/30 11:34:00;;;;;;;9.65;7.45;;;;;;;19.19;50.59;102158.47;5056563;22;20098;-66
2023/04/30 11:36:30;;;;;;;8.55;7.20;;;;;;;18.87;51.43;102158.13;5268900;22;20543;-66
2023/04/30 11:38:56;;;;;;;10.18;8.23;;;;;;;18.76;54.07;102156.22;5429013;22;20047;-66
2023/04/30 11:41:22;;;;;;;8.95;7.10;;;;;;;18.89;54.65;102152.00;5196379;22;20024;-66
2023/04/30 11:43:47;;;;;;;6.78;5.32;;;;;;;18.86;50.17;102149.34;5205101;22;20060;-66
2023/04/30 11:46:18;;;;;;;6.75;5.25;;;;;;;18.88;51.02;102146.69;5184824;22;21222;-66
2023/04/30 11:48:45;;;;;;;7.22;5.47;;;;;;;19.14;53.90;102148.72;5276017;22;20136;-66
2023/04/30 11:56:23;;;;;;;9.25;6.30;;;;;;;19.58;51.78;102134.94;5036667;28;20065;-67
2023/04/30 11:58:54;;;;;;;8.18;5.78;;;;;;;19.73;53.14;102124.47;5292316;22;20061;-96
2023/04/30 12:01:20;;;;;;;7.57;5.75;;;;;;;19.74;49.31;102130.66;5038413;28;20029;-95
2023/04/30 12:04:15;;;;;;;6.53;5.60;;;;;;;19.51;48.78;102127.84;5035780;28;20064;-96
2023/04/30 12:06:40;;;;;;;8.88;5.60;;;;;;;19.27;47.58;102119.75;5045997;22;20130;-66
2023/04/30 12:09:08;;;;;;;7.78;6.43;;;;;;;19.05;48.66;102121.34;5019463;28;20390;-66
2023/04/30 12:11:34;;;;;;;7.65;6.38;;;;;;;18.94;50.50;102129.16;5022343;28;20122;-66
2023/04/30 12:14:02;;;;;;;6.63;5.50;;;;;;;18.96;51.27;102123.00;5024412;28;20492;-66
2023/04/30 12:16:38;;;;;;;6.78;5.38;;;;;;;19.05;50.50;102123.09;5021768;28;20119;-66
2023/04/30 12:19:03;;;;;;;9.10;5.22;;;;;;;19.03;47.75;102115.16;5021795;28;20033;-66
2023/04/30 12:21:29;;;;;;;7.15;5.20;;;;;;;18.82;48.96;102110.53;5021560;28;20048;-66